sensor_id;sensor_type;location;lat;lon;timestamp;temperature;humidity
21744;DHT22;11034;48.556;9.342;2022-09-16T00:01:11;13.30;99.90
21744;DHT22;11034;48.556;9.342;2022-09-16T00:03:39;13.30;99.90
21744;DHT22;11034;48.556;9.342;2022-09-16T00:06:16;13.30;99.90
21744;DHT22;11034;48.556;9.342;2022-09-16T00:08:45;13.30;99.90
21744;DHT22;11034;48.556;9.342;2022-09-16T00:11:14;13.30;99.90
21744;DHT22;11034;48.556;9.342;2022-09-16T00:13:42;13.30;99.90
21744;DHT22;11034;48.556;9.342;2022-09-16T00:16:17;13.30;99.90
21744;DHT22;11034;48.556;9.342;2022-09-16T00:18:46;13.30;99.90
21744;DHT22;11034;48.556;9.342;2022-09-16T00:21:15;13.30;99.90
21744;DHT22;11034;48.556;9.342;2022-09-16T00:23:44;13.30;99.90
21744;DHT22;11034;48.556;9.342;2022-09-16T00:26:13;13.30;99.90
21744;DHT22;11034;48.556;9.342;2022-09-16T00:28:43;13.30;99.90
21744;DHT22;11034;48.556;9.342;2022-09-16T00:31:11;13.30;99.90
21744;DHT22;11034;48.556;9.342;2022-09-16T00:33:39;13.30;99.90
21744;DHT22;11034;48.556;9.342;2022-09-16T00:36:09;13.30;99.90
21744;DHT22;11034;48.556;9.342;2022-09-16T00:38:39;13.30;99.90
21744;DHT22;11034;48.556;9.342;2022-09-16T00:41:13;13.30;99.90
21744;DHT22;11034;48.556;9.342;2022-09-16T00:43:51;13.30;99.90
21744;DHT22;11034;48.556;9.342;2022-09-16T00:46:23;13.30;99.90
21744;DHT22;11034;48.556;9.342;2022-09-16T00:48:53;13.30;99.90
21744;DHT22;11034;48.556;9.342;2022-09-16T00:51:22;13.30;99.90
21744;DHT22;11034;48.556;9.342;2022-09-16T00:53:54;13.30;99.90
21744;DHT22;11034;48.556;9.342;2022-09-16T00:56:25;13.30;99.90
21744;DHT22;11034;48.556;9.342;2022-09-16T00:58:59;13.30;99.90
21744;DHT22;11034;48.556;9.342;2022-09-16T01:01:30;13.20;99.90
21744;DHT22;11034;48.556;9.342;2022-09-16T01:04:02;13.20;99.90
21744;DHT22;11034;48.556;9.342;2022-09-16T01:06:34;13.20;99.90
21744;DHT22;11034;48.556;9.342;2022-09-16T01:09:06;13.20;99.90
21744;DHT22;11034;48.556;9.342;2022-09-16T01:11:35;13.20;99.90
21744;DHT22;11034;48.556;9.342;2022-09-16T01:14:03;13.20;99.90
21744;DHT22;11034;48.556;9.342;2022-09-16T01:16:53;13.10;99.90
21744;DHT22;11034;48.556;9.342;2022-09-16T01:19:40;13.10;99.90
21744;DHT22;11034;48.556;9.342;2022-09-16T01:22:24;13.00;99.90
21744;DHT22;11034;48.556;9.342;2022-09-16T01:25:07;12.90;99.90
21744;DHT22;11034;48.556;9.342;2022-09-16T01:27:54;12.80;99.90
21744;DHT22;11034;48.556;9.342;2022-09-16T01:30:45;12.70;99.90
21744;DHT22;11034;48.556;9.342;2022-09-16T01:33:23;12.70;99.90
21744;DHT22;11034;48.556;9.342;2022-09-16T01:36:10;12.70;99.90
21744;DHT22;11034;48.556;9.342;2022-09-16T01:39:02;12.80;99.90
21744;DHT22;11034;48.556;9.342;2022-09-16T01:41:41;12.90;99.90
21744;DHT22;11034;48.556;9.342;2022-09-16T01:44:18;12.90;99.90
21744;DHT22;11034;48.556;9.342;2022-09-16T01:46:57;12.90;99.90
21744;DHT22;11034;48.556;9.342;2022-09-16T01:49:35;12.90;99.90
21744;DHT22;11034;48.556;9.342;2022-09-16T01:52:12;12.90;99.90
21744;DHT22;11034;48.556;9.342;2022-09-16T01:54:47;12.90;99.90
21744;DHT22;11034;48.556;9.342;2022-09-16T01:57:18;13.00;99.90
21744;DHT22;11034;48.556;9.342;2022-09-16T01:59:50;13.00;99.90
21744;DHT22;11034;48.556;9.342;2022-09-16T02:02:25;13.00;99.90
21744;DHT22;11034;48.556;9.342;2022-09-16T02:04:56;13.00;99.90
21744;DHT22;11034;48.556;9.342;2022-09-16T02:07:30;13.00;99.90
21744;DHT22;11034;48.556;9.342;2022-09-16T02:10:06;13.00;99.90
21744;DHT22;11034;48.556;9.342;2022-09-16T02:12:41;12.90;99.90
21744;DHT22;11034;48.556;9.342;2022-09-16T02:15:13;12.90;99.90
21744;DHT22;11034;48.556;9.342;2022-09-16T02:17:48;12.90;99.90
21744;DHT22;11034;48.556;9.342;2022-09-16T02:20:21;12.80;99.90
21744;DHT22;11034;48.556;9.342;2022-09-16T02:22:53;12.80;99.90
21744;DHT22;11034;48.556;9.342;2022-09-16T02:25:25;12.80;99.90
21744;DHT22;11034;48.556;9.342;2022-09-16T02:27:56;12.80;99.90
21744;DHT22;11034;48.556;9.342;2022-09-16T02:30:27;12.70;99.90
21744;DHT22;11034;48.556;9.342;2022-09-16T02:33:00;12.80;99.90
21744;DHT22;11034;48.556;9.342;2022-09-16T02:35:34;12.80;99.90
21744;DHT22;11034;48.556;9.342;2022-09-16T02:38:06;12.80;99.90
21744;DHT22;11034;48.556;9.342;2022-09-16T02:40:40;12.90;99.90
21744;DHT22;11034;48.556;9.342;2022-09-16T02:43:09;13.00;99.90
21744;DHT22;11034;48.556;9.342;2022-09-16T02:45:44;12.90;99.90
21744;DHT22;11034;48.556;9.342;2022-09-16T02:48:22;12.70;99.90
21744;DHT22;11034;48.556;9.342;2022-09-16T02:50:59;12.60;99.90
21744;DHT22;11034;48.556;9.342;2022-09-16T02:53:35;12.50;99.90
21744;DHT22;11034;48.556;9.342;2022-09-16T02:56:12;12.40;99.90
21744;DHT22;11034;48.556;9.342;2022-09-16T02:58:42;12.40;99.90
21744;DHT22;11034;48.556;9.342;2022-09-16T03:01:12;12.40;99.90
21744;DHT22;11034;48.556;9.342;2022-09-16T03:03:42;12.30;99.90
21744;DHT22;11034;48.556;9.342;2022-09-16T03:06:15;12.30;99.90
21744;DHT22;11034;48.556;9.342;2022-09-16T03:08:44;12.30;99.90
21744;DHT22;11034;48.556;9.342;2022-09-16T03:17:07;12.20;99.90
21744;DHT22;11034;48.556;9.342;2022-09-16T03:19:47;12.10;99.90
21744;DHT22;11034;48.556;9.342;2022-09-16T03:22:33;12.00;99.90
21744;DHT22;11034;48.556;9.342;2022-09-16T03:25:09;12.10;99.90
21744;DHT22;11034;48.556;9.342;2022-09-16T03:27:42;12.20;99.90
21744;DHT22;11034;48.556;9.342;2022-09-16T03:30:11;12.20;99.90
21744;DHT22;11034;48.556;9.342;2022-09-16T03:32:43;12.30;99.90
21744;DHT22;11034;48.556;9.342;2022-09-16T03:35:19;12.40;99.90
21744;DHT22;11034;48.556;9.342;2022-09-16T03:37:50;12.40;99.90
21744;DHT22;11034;48.556;9.342;2022-09-16T03:40:21;12.40;99.90
21744;DHT22;11034;48.556;9.342;2022-09-16T03:42:50;12.40;99.90
21744;DHT22;11034;48.556;9.342;2022-09-16T03:45:20;12.40;99.90
21744;DHT22;11034;48.556;9.342;2022-09-16T03:47:49;12.40;99.90
21744;DHT22;11034;48.556;9.342;2022-09-16T03:50:20;12.40;99.90
21744;DHT22;11034;48.556;9.342;2022-09-16T03:52:48;12.40;99.90
21744;DHT22;11034;48.556;9.342;2022-09-16T03:55:16;12.30;99.90
21744;DHT22;11034;48.556;9.342;2022-09-16T03:57:44;12.40;99.90
21744;DHT22;11034;48.556;9.342;2022-09-16T04:00:13;12.40;99.90
21744;DHT22;11034;48.556;9.342;2022-09-16T04:02:45;12.40;99.90
21744;DHT22;11034;48.556;9.342;2022-09-16T04:05:13;12.40;99.90
21744;DHT22;11034;48.556;9.342;2022-09-16T04:07:42;12.40;99.90
21744;DHT22;11034;48.556;9.342;2022-09-16T04:10:10;12.40;99.90
21744;DHT22;11034;48.556;9.342;2022-09-16T04:12:38;12.40;99.90
21744;DHT22;11034;48.556;9.342;2022-09-16T04:15:07;12.40;99.90
21744;DHT22;11034;48.556;9.342;2022-09-16T04:17:35;12.50;99.90
21744;DHT22;11034;48.556;9.342;2022-09-16T04:20:04;12.50;99.90
21744;DHT22;11034;48.556;9.342;2022-09-16T04:22:33;12.50;99.90
21744;DHT22;11034;48.556;9.342;2022-09-16T04:25:03;12.50;99.90
21744;DHT22;11034;48.556;9.342;2022-09-16T04:27:31;12.50;99.90
21744;DHT22;11034;48.556;9.342;2022-09-16T04:29:59;12.50;99.90
21744;DHT22;11034;48.556;9.342;2022-09-16T04:32:28;12.50;99.90
21744;DHT22;11034;48.556;9.342;2022-09-16T04:34:56;12.50;99.90
21744;DHT22;11034;48.556;9.342;2022-09-16T04:37:24;12.60;99.90
21744;DHT22;11034;48.556;9.342;2022-09-16T04:39:54;12.60;99.90
21744;DHT22;11034;48.556;9.342;2022-09-16T04:42:29;12.60;99.90
21744;DHT22;11034;48.556;9.342;2022-09-16T04:44:57;12.60;99.90
21744;DHT22;11034;48.556;9.342;2022-09-16T04:47:26;12.60;99.90
21744;DHT22;11034;48.556;9.342;2022-09-16T04:49:56;12.50;99.90
21744;DHT22;11034;48.556;9.342;2022-09-16T04:52:24;12.50;99.90
21744;DHT22;11034;48.556;9.342;2022-09-16T04:54:52;12.50;99.90
21744;DHT22;11034;48.556;9.342;2022-09-16T04:57:24;12.50;99.90
21744;DHT22;11034;48.556;9.342;2022-09-16T04:59:56;12.50;99.90
21744;DHT22;11034;48.556;9.342;2022-09-16T05:02:27;12.50;99.90
21744;DHT22;11034;48.556;9.342;2022-09-16T05:04:58;12.50;99.90
21744;DHT22;11034;48.556;9.342;2022-09-16T05:07:27;12.50;99.90
21744;DHT22;11034;48.556;9.342;2022-09-16T05:09:55;12.40;99.90
21744;DHT22;11034;48.556;9.342;2022-09-16T05:12:23;12.40;99.90
21744;DHT22;11034;48.556;9.342;2022-09-16T05:14:52;12.40;99.90
21744;DHT22;11034;48.556;9.342;2022-09-16T05:17:22;12.40;99.90
21744;DHT22;11034;48.556;9.342;2022-09-16T05:20:14;12.40;99.90
21744;DHT22;11034;48.556;9.342;2022-09-16T05:22:43;12.50;99.90
21744;DHT22;11034;48.556;9.342;2022-09-16T05:25:11;12.60;99.90
21744;DHT22;11034;48.556;9.342;2022-09-16T05:27:56;12.60;99.90
21744;DHT22;11034;48.556;9.342;2022-09-16T05:30:27;12.60;99.90
21744;DHT22;11034;48.556;9.342;2022-09-16T05:32:56;12.50;99.90
21744;DHT22;11034;48.556;9.342;2022-09-16T05:35:24;12.40;99.90
21744;DHT22;11034;48.556;9.342;2022-09-16T05:40:57;12.50;99.90
21744;DHT22;11034;48.556;9.342;2022-09-16T05:43:25;12.50;99.90
21744;DHT22;11034;48.556;9.342;2022-09-16T05:45:54;12.50;99.90
21744;DHT22;11034;48.556;9.342;2022-09-16T05:48:24;12.50;99.90
21744;DHT22;11034;48.556;9.342;2022-09-16T05:50:53;12.60;99.90
21744;DHT22;11034;48.556;9.342;2022-09-16T05:53:23;12.70;99.90
21744;DHT22;11034;48.556;9.342;2022-09-16T05:55:55;12.70;99.90
21744;DHT22;11034;48.556;9.342;2022-09-16T05:58:24;12.80;99.90
21744;DHT22;11034;48.556;9.342;2022-09-16T06:00:57;12.80;99.90
21744;DHT22;11034;48.556;9.342;2022-09-16T06:03:27;12.80;99.90
21744;DHT22;11034;48.556;9.342;2022-09-16T06:05:59;12.70;99.90
21744;DHT22;11034;48.556;9.342;2022-09-16T06:08:28;12.70;99.90
21744;DHT22;11034;48.556;9.342;2022-09-16T06:10:59;12.60;99.90
21744;DHT22;11034;48.556;9.342;2022-09-16T06:13:27;12.60;99.90
21744;DHT22;11034;48.556;9.342;2022-09-16T06:15:55;12.50;99.90
21744;DHT22;11034;48.556;9.342;2022-09-16T06:18:25;12.50;99.90
21744;DHT22;11034;48.556;9.342;2022-09-16T06:20:56;12.40;99.90
21744;DHT22;11034;48.556;9.342;2022-09-16T06:23:24;12.30;99.90
21744;DHT22;11034;48.556;9.342;2022-09-16T06:25:58;12.30;99.90
21744;DHT22;11034;48.556;9.342;2022-09-16T06:28:27;12.10;99.90
21744;DHT22;11034;48.556;9.342;2022-09-16T06:31:03;12.10;99.90
21744;DHT22;11034;48.556;9.342;2022-09-16T06:33:32;11.90;99.90
21744;DHT22;11034;48.556;9.342;2022-09-16T06:36:07;11.90;99.90
21744;DHT22;11034;48.556;9.342;2022-09-16T06:38:35;11.80;99.90
21744;DHT22;11034;48.556;9.342;2022-09-16T06:41:06;11.90;99.90
21744;DHT22;11034;48.556;9.342;2022-09-16T06:43:35;11.90;99.90
21744;DHT22;11034;48.556;9.342;2022-09-16T06:46:05;11.80;99.90
21744;DHT22;11034;48.556;9.342;2022-09-16T06:48:35;11.70;99.90
21744;DHT22;11034;48.556;9.342;2022-09-16T06:51:08;11.70;99.90
21744;DHT22;11034;48.556;9.342;2022-09-16T06:53:59;11.60;99.90
21744;DHT22;11034;48.556;9.342;2022-09-16T06:56:28;11.50;99.90
21744;DHT22;11034;48.556;9.342;2022-09-16T06:58:57;11.60;99.90
21744;DHT22;11034;48.556;9.342;2022-09-16T07:01:27;11.60;99.90
21744;DHT22;11034;48.556;9.342;2022-09-16T07:03:57;11.60;99.90
21744;DHT22;11034;48.556;9.342;2022-09-16T07:06:28;11.60;99.90
21744;DHT22;11034;48.556;9.342;2022-09-16T07:09:17;11.50;99.90
21744;DHT22;11034;48.556;9.342;2022-09-16T07:11:45;11.50;99.90
21744;DHT22;11034;48.556;9.342;2022-09-16T07:14:16;11.40;99.90
21744;DHT22;11034;48.556;9.342;2022-09-16T07:16:44;11.30;99.90
21744;DHT22;11034;48.556;9.342;2022-09-16T07:19:13;11.40;99.90
21744;DHT22;11034;48.556;9.342;2022-09-16T07:22:03;11.30;99.90
21744;DHT22;11034;48.556;9.342;2022-09-16T07:28:10;11.30;99.90
21744;DHT22;11034;48.556;9.342;2022-09-16T07:30:41;11.30;99.90
21744;DHT22;11034;48.556;9.342;2022-09-16T07:33:09;11.10;99.90
21744;DHT22;11034;48.556;9.342;2022-09-16T07:35:37;11.00;99.90
21744;DHT22;11034;48.556;9.342;2022-09-16T07:38:07;11.00;99.90
21744;DHT22;11034;48.556;9.342;2022-09-16T07:40:35;11.00;99.90
21744;DHT22;11034;48.556;9.342;2022-09-16T07:43:06;11.00;99.90
21744;DHT22;11034;48.556;9.342;2022-09-16T07:45:34;11.00;99.90
21744;DHT22;11034;48.556;9.342;2022-09-16T07:48:04;11.10;99.90
21744;DHT22;11034;48.556;9.342;2022-09-16T07:50:33;11.10;99.90
21744;DHT22;11034;48.556;9.342;2022-09-16T07:53:01;11.00;99.90
21744;DHT22;11034;48.556;9.342;2022-09-16T07:55:34;11.00;99.90
21744;DHT22;11034;48.556;9.342;2022-09-16T07:58:02;11.00;99.90
21744;DHT22;11034;48.556;9.342;2022-09-16T08:00:30;11.00;99.90
21744;DHT22;11034;48.556;9.342;2022-09-16T08:02:59;11.00;99.90
21744;DHT22;11034;48.556;9.342;2022-09-16T08:05:27;10.90;99.90
21744;DHT22;11034;48.556;9.342;2022-09-16T08:07:55;10.90;99.90
21744;DHT22;11034;48.556;9.342;2022-09-16T08:10:26;10.80;99.90
21744;DHT22;11034;48.556;9.342;2022-09-16T08:12:59;10.80;99.90
21744;DHT22;11034;48.556;9.342;2022-09-16T08:15:28;10.70;99.90
21744;DHT22;11034;48.556;9.342;2022-09-16T08:17:56;10.60;99.90
21744;DHT22;11034;48.556;9.342;2022-09-16T08:20:24;10.70;99.90
21744;DHT22;11034;48.556;9.342;2022-09-16T08:22:52;10.70;99.90
21744;DHT22;11034;48.556;9.342;2022-09-16T08:25:23;10.70;99.90
21744;DHT22;11034;48.556;9.342;2022-09-16T08:27:52;10.70;99.90
21744;DHT22;11034;48.556;9.342;2022-09-16T08:30:26;10.70;99.90
21744;DHT22;11034;48.556;9.342;2022-09-16T08:32:55;10.60;99.90
21744;DHT22;11034;48.556;9.342;2022-09-16T08:35:24;10.60;99.90
21744;DHT22;11034;48.556;9.342;2022-09-16T08:37:52;10.70;99.90
21744;DHT22;11034;48.556;9.342;2022-09-16T08:40:22;10.70;99.90
21744;DHT22;11034;48.556;9.342;2022-09-16T08:43:00;10.80;99.90
21744;DHT22;11034;48.556;9.342;2022-09-16T08:45:41;10.80;99.90
21744;DHT22;11034;48.556;9.342;2022-09-16T08:48:22;11.00;99.90
21744;DHT22;11034;48.556;9.342;2022-09-16T08:50:58;11.00;99.90
21744;DHT22;11034;48.556;9.342;2022-09-16T08:53:36;11.20;99.90
21744;DHT22;11034;48.556;9.342;2022-09-16T08:56:11;11.40;99.90
21744;DHT22;11034;48.556;9.342;2022-09-16T08:58:49;11.50;99.90
21744;DHT22;11034;48.556;9.342;2022-09-16T09:01:45;11.60;99.90
21744;DHT22;11034;48.556;9.342;2022-09-16T09:04:25;11.50;99.90
21744;DHT22;11034;48.556;9.342;2022-09-16T09:07:27;11.60;99.90
21744;DHT22;11034;48.556;9.342;2022-09-16T09:10:07;11.60;99.90
21744;DHT22;11034;48.556;9.342;2022-09-16T09:13:10;11.50;99.90
21744;DHT22;11034;48.556;9.342;2022-09-16T09:16:02;11.60;99.90
21744;DHT22;11034;48.556;9.342;2022-09-16T09:19:27;11.60;99.90
21744;DHT22;11034;48.556;9.342;2022-09-16T09:22:08;11.60;99.90
21744;DHT22;11034;48.556;9.342;2022-09-16T09:24:54;11.70;99.90
21744;DHT22;11034;48.556;9.342;2022-09-16T09:27:26;11.90;99.90
21744;DHT22;11034;48.556;9.342;2022-09-16T09:30:02;12.10;99.90
21744;DHT22;11034;48.556;9.342;2022-09-16T09:32:42;12.10;99.90
21744;DHT22;11034;48.556;9.342;2022-09-16T09:35:33;12.10;99.90
21744;DHT22;11034;48.556;9.342;2022-09-16T09:38:34;12.20;99.90
21744;DHT22;11034;48.556;9.342;2022-09-16T09:41:07;12.20;99.90
21744;DHT22;11034;48.556;9.342;2022-09-16T09:43:44;12.20;99.90
21744;DHT22;11034;48.556;9.342;2022-09-16T09:46:18;12.10;99.90
21744;DHT22;11034;48.556;9.342;2022-09-16T09:48:53;12.00;99.90
21744;DHT22;11034;48.556;9.342;2022-09-16T09:51:32;11.80;99.90
21744;DHT22;11034;48.556;9.342;2022-09-16T09:54:18;11.90;99.90
21744;DHT22;11034;48.556;9.342;2022-09-16T09:56:53;12.00;99.90
21744;DHT22;11034;48.556;9.342;2022-09-16T09:59:28;12.20;99.90
21744;DHT22;11034;48.556;9.342;2022-09-16T10:01:58;12.20;99.90
21744;DHT22;11034;48.556;9.342;2022-09-16T10:04:34;12.40;99.90
21744;DHT22;11034;48.556;9.342;2022-09-16T10:07:06;12.40;99.90
21744;DHT22;11034;48.556;9.342;2022-09-16T10:09:37;12.50;99.90
21744;DHT22;11034;48.556;9.342;2022-09-16T10:12:12;12.50;99.90
21744;DHT22;11034;48.556;9.342;2022-09-16T10:14:40;12.50;99.90
21744;DHT22;11034;48.556;9.342;2022-09-16T10:17:14;12.40;99.90
21744;DHT22;11034;48.556;9.342;2022-09-16T10:19:50;12.40;99.90
21744;DHT22;11034;48.556;9.342;2022-09-16T10:22:23;12.50;99.90
21744;DHT22;11034;48.556;9.342;2022-09-16T10:24:54;12.70;99.90
21744;DHT22;11034;48.556;9.342;2022-09-16T10:27:24;12.90;99.90
21744;DHT22;11034;48.556;9.342;2022-09-16T10:30:06;13.30;99.90
21744;DHT22;11034;48.556;9.342;2022-09-16T10:32:45;13.50;99.90
21744;DHT22;11034;48.556;9.342;2022-09-16T10:35:21;13.60;99.90
21744;DHT22;11034;48.556;9.342;2022-09-16T10:37:55;13.80;99.90
21744;DHT22;11034;48.556;9.342;2022-09-16T10:40:24;14.00;99.90
21744;DHT22;11034;48.556;9.342;2022-09-16T10:42:55;14.10;99.90
21744;DHT22;11034;48.556;9.342;2022-09-16T10:45:26;14.20;99.90
21744;DHT22;11034;48.556;9.342;2022-09-16T10:47:57;14.30;99.90
21744;DHT22;11034;48.556;9.342;2022-09-16T10:50:32;14.40;99.90
21744;DHT22;11034;48.556;9.342;2022-09-16T10:53:02;14.70;99.90
21744;DHT22;11034;48.556;9.342;2022-09-16T10:55:31;15.00;99.90
21744;DHT22;11034;48.556;9.342;2022-09-16T10:58:07;15.00;99.90
21744;DHT22;11034;48.556;9.342;2022-09-16T11:00:42;14.60;99.90
21744;DHT22;11034;48.556;9.342;2022-09-16T11:03:36;14.40;99.90
21744;DHT22;11034;48.556;9.342;2022-09-16T11:06:21;14.40;99.90
21744;DHT22;11034;48.556;9.342;2022-09-16T11:09:02;14.60;99.90
21744;DHT22;11034;48.556;9.342;2022-09-16T11:12:01;14.40;99.90
21744;DHT22;11034;48.556;9.342;2022-09-16T11:14:44;14.30;99.90
21744;DHT22;11034;48.556;9.342;2022-09-16T11:17:36;14.20;99.90
21744;DHT22;11034;48.556;9.342;2022-09-16T11:20:43;14.20;99.90
21744;DHT22;11034;48.556;9.342;2022-09-16T11:23:24;14.20;99.90
21744;DHT22;11034;48.556;9.342;2022-09-16T11:25:59;14.40;99.90
21744;DHT22;11034;48.556;9.342;2022-09-16T11:28:49;14.50;99.90
21744;DHT22;11034;48.556;9.342;2022-09-16T11:31:30;14.40;99.90
21744;DHT22;11034;48.556;9.342;2022-09-16T11:34:06;14.40;99.90
21744;DHT22;11034;48.556;9.342;2022-09-16T11:36:48;14.40;99.90
21744;DHT22;11034;48.556;9.342;2022-09-16T11:39:37;14.30;99.90
21744;DHT22;11034;48.556;9.342;2022-09-16T11:42:17;14.30;99.90
21744;DHT22;11034;48.556;9.342;2022-09-16T11:44:50;14.00;99.90
21744;DHT22;11034;48.556;9.342;2022-09-16T11:47:32;14.00;99.90
21744;DHT22;11034;48.556;9.342;2022-09-16T11:50:25;14.00;99.90
21744;DHT22;11034;48.556;9.342;2022-09-16T11:53:14;14.20;99.90
21744;DHT22;11034;48.556;9.342;2022-09-16T11:55:53;14.20;99.90
21744;DHT22;11034;48.556;9.342;2022-09-16T11:58:30;14.30;99.90
21744;DHT22;11034;48.556;9.342;2022-09-16T12:01:07;14.40;99.90
21744;DHT22;11034;48.556;9.342;2022-09-16T12:03:44;14.50;99.90
21744;DHT22;11034;48.556;9.342;2022-09-16T12:06:17;14.40;99.90
21744;DHT22;11034;48.556;9.342;2022-09-16T12:08:53;14.70;99.90
21744;DHT22;11034;48.556;9.342;2022-09-16T12:11:29;14.80;99.90
21744;DHT22;11034;48.556;9.342;2022-09-16T12:14:07;14.80;99.90
21744;DHT22;11034;48.556;9.342;2022-09-16T12:16:42;15.00;99.90
21744;DHT22;11034;48.556;9.342;2022-09-16T12:19:16;15.10;99.90
21744;DHT22;11034;48.556;9.342;2022-09-16T12:21:55;15.20;99.90
21744;DHT22;11034;48.556;9.342;2022-09-16T12:24:38;15.10;99.90
21744;DHT22;11034;48.556;9.342;2022-09-16T12:27:14;15.00;99.90
21744;DHT22;11034;48.556;9.342;2022-09-16T12:29:55;15.30;99.90
21744;DHT22;11034;48.556;9.342;2022-09-16T12:32:39;15.40;99.90
21744;DHT22;11034;48.556;9.342;2022-09-16T12:35:32;15.30;99.90
21744;DHT22;11034;48.556;9.342;2022-09-16T12:38:26;15.50;99.90
21744;DHT22;11034;48.556;9.342;2022-09-16T12:41:19;15.60;99.90
21744;DHT22;11034;48.556;9.342;2022-09-16T12:44:08;15.90;99.90
21744;DHT22;11034;48.556;9.342;2022-09-16T12:47:40;16.00;99.90
21744;DHT22;11034;48.556;9.342;2022-09-16T13:01:00;15.70;99.90
21744;DHT22;11034;48.556;9.342;2022-09-16T13:03:37;15.70;99.90
21744;DHT22;11034;48.556;9.342;2022-09-16T13:06:18;15.90;99.90
21744;DHT22;11034;48.556;9.342;2022-09-16T13:08:49;15.90;99.90
21744;DHT22;11034;48.556;9.342;2022-09-16T13:11:23;15.70;99.90
21744;DHT22;11034;48.556;9.342;2022-09-16T13:14:21;15.40;99.90
21744;DHT22;11034;48.556;9.342;2022-09-16T13:16:56;15.20;99.90
21744;DHT22;11034;48.556;9.342;2022-09-16T13:19:34;15.00;99.90
21744;DHT22;11034;48.556;9.342;2022-09-16T13:22:16;15.00;99.90
21744;DHT22;11034;48.556;9.342;2022-09-16T13:24:48;15.20;99.90
21744;DHT22;11034;48.556;9.342;2022-09-16T13:27:29;15.20;99.90
21744;DHT22;11034;48.556;9.342;2022-09-16T13:30:27;15.20;99.90
21744;DHT22;11034;48.556;9.342;2022-09-16T13:33:27;15.10;99.90
21744;DHT22;11034;48.556;9.342;2022-09-16T13:36:14;14.90;99.90
21744;DHT22;11034;48.556;9.342;2022-09-16T13:38:45;15.00;99.90
21744;DHT22;11034;48.556;9.342;2022-09-16T13:41:31;15.10;99.90
21744;DHT22;11034;48.556;9.342;2022-09-16T13:44:02;15.20;99.90
21744;DHT22;11034;48.556;9.342;2022-09-16T13:46:37;15.50;99.90
21744;DHT22;11034;48.556;9.342;2022-09-16T13:49:21;15.70;99.90
21744;DHT22;11034;48.556;9.342;2022-09-16T13:51:55;15.70;99.90
21744;DHT22;11034;48.556;9.342;2022-09-16T13:54:27;15.70;99.90
21744;DHT22;11034;48.556;9.342;2022-09-16T13:57:29;15.60;99.90
21744;DHT22;11034;48.556;9.342;2022-09-16T14:00:17;15.60;99.90
21744;DHT22;11034;48.556;9.342;2022-09-16T14:03:22;15.60;99.90
21744;DHT22;11034;48.556;9.342;2022-09-16T14:06:12;15.30;99.90
21744;DHT22;11034;48.556;9.342;2022-09-16T14:08:53;15.30;99.90
21744;DHT22;11034;48.556;9.342;2022-09-16T14:11:40;15.30;99.90
21744;DHT22;11034;48.556;9.342;2022-09-16T14:14:17;15.30;99.90
21744;DHT22;11034;48.556;9.342;2022-09-16T14:17:17;15.30;99.90
21744;DHT22;11034;48.556;9.342;2022-09-16T14:19:52;15.30;99.90
21744;DHT22;11034;48.556;9.342;2022-09-16T14:22:28;15.50;99.90
21744;DHT22;11034;48.556;9.342;2022-09-16T14:24:58;15.70;99.90
21744;DHT22;11034;48.556;9.342;2022-09-16T14:27:51;15.50;99.90
21744;DHT22;11034;48.556;9.342;2022-09-16T14:30:22;15.40;99.90
21744;DHT22;11034;48.556;9.342;2022-09-16T14:32:50;15.30;99.90
21744;DHT22;11034;48.556;9.342;2022-09-16T14:35:20;15.20;99.90
21744;DHT22;11034;48.556;9.342;2022-09-16T14:37:52;15.30;99.90
21744;DHT22;11034;48.556;9.342;2022-09-16T14:40:26;15.40;99.90
21744;DHT22;11034;48.556;9.342;2022-09-16T14:42:58;15.50;99.90
21744;DHT22;11034;48.556;9.342;2022-09-16T14:45:28;15.70;99.90
21744;DHT22;11034;48.556;9.342;2022-09-16T14:47:59;15.50;99.90
21744;DHT22;11034;48.556;9.342;2022-09-16T14:50:35;15.40;99.90
21744;DHT22;11034;48.556;9.342;2022-09-16T14:53:06;15.10;99.90
21744;DHT22;11034;48.556;9.342;2022-09-16T14:55:54;14.90;99.90
21744;DHT22;11034;48.556;9.342;2022-09-16T14:58:25;14.70;99.90
21744;DHT22;11034;48.556;9.342;2022-09-16T15:00:57;14.70;99.90
21744;DHT22;11034;48.556;9.342;2022-09-16T15:03:30;14.60;99.90
21744;DHT22;11034;48.556;9.342;2022-09-16T15:06:04;14.60;99.90
21744;DHT22;11034;48.556;9.342;2022-09-16T15:08:37;14.50;99.90
21744;DHT22;11034;48.556;9.342;2022-09-16T15:11:16;14.70;99.90
21744;DHT22;11034;48.556;9.342;2022-09-16T15:14:06;14.90;99.90
21744;DHT22;11034;48.556;9.342;2022-09-16T15:16:43;15.00;99.90
21744;DHT22;11034;48.556;9.342;2022-09-16T15:19:20;15.10;99.90
21744;DHT22;11034;48.556;9.342;2022-09-16T15:21:49;15.10;99.90
21744;DHT22;11034;48.556;9.342;2022-09-16T15:24:20;15.20;99.90
21744;DHT22;11034;48.556;9.342;2022-09-16T15:26:52;15.40;99.90
21744;DHT22;11034;48.556;9.342;2022-09-16T15:29:29;15.20;99.90
21744;DHT22;11034;48.556;9.342;2022-09-16T15:32:16;15.10;99.90
21744;DHT22;11034;48.556;9.342;2022-09-16T15:34:45;15.00;99.90
21744;DHT22;11034;48.556;9.342;2022-09-16T15:37:28;15.00;99.90
21744;DHT22;11034;48.556;9.342;2022-09-16T15:40:17;14.90;99.90
21744;DHT22;11034;48.556;9.342;2022-09-16T15:42:59;15.00;99.90
21744;DHT22;11034;48.556;9.342;2022-09-16T15:45:29;14.90;99.90
21744;DHT22;11034;48.556;9.342;2022-09-16T15:48:01;15.00;99.90
21744;DHT22;11034;48.556;9.342;2022-09-16T15:50:39;15.00;99.90
21744;DHT22;11034;48.556;9.342;2022-09-16T15:53:10;15.00;99.90
21744;DHT22;11034;48.556;9.342;2022-09-16T15:55:49;14.90;99.90
21744;DHT22;11034;48.556;9.342;2022-09-16T15:58:30;14.90;99.90
21744;DHT22;11034;48.556;9.342;2022-09-16T16:01:10;14.70;99.90
21744;DHT22;11034;48.556;9.342;2022-09-16T16:03:49;14.80;99.90
21744;DHT22;11034;48.556;9.342;2022-09-16T16:06:19;14.70;99.90
21744;DHT22;11034;48.556;9.342;2022-09-16T16:08:49;14.70;99.90
21744;DHT22;11034;48.556;9.342;2022-09-16T16:11:21;14.60;99.90
21744;DHT22;11034;48.556;9.342;2022-09-16T16:13:50;14.60;99.90
21744;DHT22;11034;48.556;9.342;2022-09-16T16:16:18;14.50;99.90
21744;DHT22;11034;48.556;9.342;2022-09-16T16:18:48;14.40;99.90
21744;DHT22;11034;48.556;9.342;2022-09-16T16:21:16;14.40;99.90
21744;DHT22;11034;48.556;9.342;2022-09-16T16:23:46;14.40;99.90
21744;DHT22;11034;48.556;9.342;2022-09-16T16:26:14;14.30;99.90
21744;DHT22;11034;48.556;9.342;2022-09-16T16:28:42;14.30;99.90
21744;DHT22;11034;48.556;9.342;2022-09-16T16:31:14;14.30;99.90
21744;DHT22;11034;48.556;9.342;2022-09-16T16:33:43;14.30;99.90
21744;DHT22;11034;48.556;9.342;2022-09-16T16:36:13;14.30;99.90
21744;DHT22;11034;48.556;9.342;2022-09-16T16:38:41;14.20;99.90
21744;DHT22;11034;48.556;9.342;2022-09-16T16:41:11;14.20;99.90
21744;DHT22;11034;48.556;9.342;2022-09-16T16:43:39;14.20;99.90